Weather reports worldwide

Advertisment
Reinosa, Spain (8032): temperature & dewpoint: 14.06.2019 06:00:00 - 20.06.2019 06:00:00 (CEST)Reinosa, Spain (8032): wind speed & gusts: 14.06.2019 06:00:00 - 20.06.2019 06:00:00 (CEST)Reinosa, Spain (8032): wind direction: 14.06.2019 06:00:00 - 20.06.2019 06:00:00 (CEST)Reinosa, Spain (8032): precipitation: 14.06.2019 06:00:00 - 20.06.2019 06:00:00 (CEST)
Date & Time tt [°C] td [°C] ff [km/h] ff [kn] fx [km/h] fx [kn] dd rr [mm]
20.06.2019 06:00:00 - - - - - - - -
20.06.2019 05:00:00 11,8 10,9 4 2 10 5 ENE 0,0
20.06.2019 04:00:00 11,9 11,0 4 2 11 6 ENE 0,0
20.06.2019 03:00:00 11,9 11,0 7 4 16 9 ENE 0,0
20.06.2019 02:00:00 11,9 11,0 11 6 16 9 ENE -
20.06.2019 01:00:00 12,1 11,1 8 4 14 8 ENE 0,0
20.06.2019 00:00:00 12,6 11,3 6 3 11 6 ENE 0,0
19.06.2019 23:00:00 12,8 11,3 4 2 16 9 ENE 0,0
19.06.2019 22:00:00 13,1 11,4 7 4 15 8 ENE 0,0
19.06.2019 21:00:00 13,7 11,4 9 5 18 10 NNW 0,0
19.06.2019 20:00:00 13,7 11,6 9 5 20 11 ENE -
19.06.2019 19:00:00 14,6 11,8 10 6 27 15 ENE 0,0
19.06.2019 18:00:00 16,9 12,4 16 8 27 14 ENE 0,0
19.06.2019 17:00:00 18,2 11,6 16 9 31 17 ENE 0,0
19.06.2019 16:00:00 - - - - - - - -
19.06.2019 15:00:00 - - - - - - - -
19.06.2019 14:00:00 - - - - - - - -
19.06.2019 13:00:00 - - - - - - - -
19.06.2019 12:00:00 18,0 9,8 19 10 32 18 SW 0,0
19.06.2019 11:00:00 - - - - - - - -
19.06.2019 10:00:00 - - - - - - - -
19.06.2019 09:00:00 - - - - - - - -
19.06.2019 08:00:00 - - - - - - - -
19.06.2019 07:00:00 - - - - - - - -
19.06.2019 06:00:00 - - - - - - - -
19.06.2019 05:00:00 - - - - - - - -
19.06.2019 04:00:00 - - - - - - - -
19.06.2019 03:00:00 - - - - - - - -
19.06.2019 02:00:00 - - - - - - - -
19.06.2019 01:00:00 - - - - - - - -
19.06.2019 00:00:00 - - - - - - - -
18.06.2019 23:00:00 - - - - - - - -
18.06.2019 22:00:00 - - - - - - - -
18.06.2019 21:00:00 - - - - - - - -
18.06.2019 20:00:00 - - - - - - - -
18.06.2019 19:00:00 23,8 5,1 18 10 46 25 SW 0,0
18.06.2019 18:00:00 24,3 3,6 26 14 56 30 SW 0,0
18.06.2019 17:00:00 25,7 1,1 21 11 55 30 SSW 0,0
18.06.2019 16:00:00 24,9 -0,3 19 11 55 30 SW 0,0
18.06.2019 15:00:00 24,5 -2,2 25 14 59 32 SSW 0,0
18.06.2019 14:00:00 24,3 0,0 13 7 58 32 SSW -
18.06.2019 13:00:00 22,8 -0,7 27 15 58 32 S 0,0
18.06.2019 12:00:00 22,9 1,9 16 9 40 22 S 0,0
18.06.2019 11:00:00 21,9 3,6 10 6 36 19 SSW 0,0
18.06.2019 10:00:00 20,4 3,6 18 10 33 18 S 0,0
18.06.2019 09:00:00 16,3 6,4 1 1 6 4 N 0,0
18.06.2019 08:00:00 9,4 6,8 4 2 8 4 WNW -
18.06.2019 07:00:00 8,2 4,6 1 1 9 5 NW 0,0
18.06.2019 06:00:00 9,1 5,5 4 2 9 5 W 0,0
18.06.2019 05:00:00 9,9 6,1 1 0 6 3 NW 0,0
18.06.2019 04:00:00 12,2 7,3 5 3 10 5 NE 0,0
18.06.2019 03:00:00 12,3 10,2 5 3 8 5 NNE 0,0
18.06.2019 02:00:00 13,7 11,6 3 2 14 8 NNE -
18.06.2019 01:00:00 13,8 12,5 5 3 16 8 NW 0,0
18.06.2019 00:00:00 14,6 13,2 4 2 19 11 NE 0,0
17.06.2019 23:00:00 14,5 13,1 4 2 9 5 NNE 0,0
17.06.2019 22:00:00 15,1 13,3 5 3 11 6 E 0,0
17.06.2019 21:00:00 15,7 13,2 4 2 21 11 ESE 0,0
17.06.2019 20:00:00 18,6 12,5 9 5 15 8 ENE -
17.06.2019 19:00:00 24,2 2,3 6 3 20 11 SW 0,0
17.06.2019 18:00:00 24,7 2,7 8 5 31 17 SW 0,0
17.06.2019 17:00:00 25,2 2,7 16 9 34 19 SW 0,0
17.06.2019 16:00:00 26,9 3,9 16 9 47 25 S 0,0
17.06.2019 15:00:00 26,1 3,9 11 6 31 17 S 0,0
17.06.2019 14:00:00 25,3 4,5 11 6 36 19 S -
17.06.2019 13:00:00 24,1 5,5 13 7 32 17 S 0,0
17.06.2019 12:00:00 22,6 7,1 14 8 26 14 S 0,0
17.06.2019 11:00:00 20,8 11,7 7 4 14 7 E 0,0
17.06.2019 10:00:00 17,6 11,0 4 2 8 4 E 0,0
17.06.2019 09:00:00 13,9 10,9 1 1 5 3 SSW 0,0
17.06.2019 08:00:00 10,3 8,9 1 0 4 2 SW -
17.06.2019 07:00:00 8,4 7,1 1 0 9 5 SW 0,0
17.06.2019 06:00:00 9,4 8,4 4 2 9 5 SW 0,0
17.06.2019 05:00:00 9,2 8,3 4 2 10 5 SSW 0,0
17.06.2019 04:00:00 8,9 8,0 3 1 7 4 S 0,0
17.06.2019 03:00:00 9,9 8,9 2 1 5 3 WSW 0,0
17.06.2019 02:00:00 10,5 9,6 3 1 5 3 W -
17.06.2019 01:00:00 10,1 9,2 3 1 4 2 NW 0,0
17.06.2019 00:00:00 11,1 10,0 1 1 4 2 NE 0,0
16.06.2019 23:00:00 13,1 11,7 1 1 6 4 E 0,0
16.06.2019 22:00:00 14,2 12,4 4 2 13 7 ESE 0,0
16.06.2019 21:00:00 15,8 12,5 8 4 16 9 ENE 0,0
16.06.2019 20:00:00 17,3 12,8 9 5 26 14 ENE -
16.06.2019 19:00:00 19,7 13,2 15 8 30 16 ENE 0,0
16.06.2019 18:00:00 21,3 12,2 16 9 29 16 ENE 0,0
16.06.2019 17:00:00 23,2 9,2 12 6 22 12 NE 0,0
16.06.2019 16:00:00 23,2 6,8 10 5 22 12 E 0,0
16.06.2019 15:00:00 23,3 4,8 11 6 22 12 S 0,0
16.06.2019 14:00:00 21,9 3,9 10 5 24 13 S -
16.06.2019 13:00:00 20,9 4,8 14 8 23 13 S 0,0
16.06.2019 12:00:00 19,0 6,1 14 8 24 13 SSE 0,0
16.06.2019 11:00:00 16,8 6,8 8 5 16 8 E 0,0
16.06.2019 10:00:00 13,6 8,0 0 0 9 5 NW 0,0
16.06.2019 09:00:00 9,5 7,0 4 2 6 4 NW 0,0
16.06.2019 08:00:00 5,8 5,0 1 1 8 4 W -
16.06.2019 07:00:00 4,3 3,4 5 3 9 5 SW 0,0
16.06.2019 06:00:00 3,3 2,5 3 1 6 3 SW 0,0
16.06.2019 05:00:00 4,4 3,6 1 1 5 3 S 0,0
16.06.2019 04:00:00 5,6 4,6 2 1 4 2 WSW 0,0
16.06.2019 03:00:00 7,2 5,3 1 1 6 3 SSW 0,0
16.06.2019 02:00:00 9,4 7,0 1 1 6 4 SW -
16.06.2019 01:00:00 10,0 6,4 2 1 5 3 WSW 0,0
16.06.2019 00:00:00 10,0 5,9 3 2 16 9 NE 0,0
15.06.2019 23:00:00 10,2 6,1 9 5 19 11 NE 0,0
15.06.2019 22:00:00 10,5 6,4 5 3 14 7 NE 0,0
15.06.2019 21:00:00 10,9 6,8 3 2 21 11 NNE 0,0
15.06.2019 20:00:00 11,0 7,0 9 5 28 15 NE -
15.06.2019 19:00:00 12,8 7,4 12 6 29 16 NE 0,0
15.06.2019 18:00:00 15,4 8,0 14 7 32 17 NE 0,0
15.06.2019 17:00:00 17,1 8,0 11 6 29 15 NE 0,0
15.06.2019 16:00:00 17,2 7,0 11 6 24 13 NE 0,0
15.06.2019 15:00:00 17,4 6,2 6 4 23 13 NE 0,0
15.06.2019 14:00:00 16,4 5,3 11 6 23 12 ENE -
15.06.2019 13:00:00 16,2 6,4 8 5 19 11 NE 0,0
15.06.2019 12:00:00 14,7 5,9 6 3 16 9 ENE 0,0
15.06.2019 11:00:00 14,5 7,1 5 3 10 6 NE 0,0
15.06.2019 10:00:00 10,8 5,6 1 1 6 3 SE 0,0
15.06.2019 09:00:00 9,9 7,1 0 0 6 3 W 0,0
15.06.2019 08:00:00 9,0 7,7 0 0 7 4 S -
15.06.2019 07:00:00 8,7 7,3 3 2 10 5 E 0,0
15.06.2019 06:00:00 8,8 7,6 3 2 8 5 SE 0,0
15.06.2019 05:00:00 8,9 7,1 5 3 9 5 ESE 0,0
15.06.2019 04:00:00 9,2 7,0 5 3 12 6 SE 0,0
15.06.2019 03:00:00 9,1 7,8 5 3 11 6 SE 0,0
15.06.2019 02:00:00 9,4 7,3 4 2 11 6 E -
15.06.2019 01:00:00 9,8 4,3 5 3 16 8 WNW 0,0
15.06.2019 00:00:00 9,4 5,8 5 3 11 6 WNW 0,0
14.06.2019 23:00:00 9,1 5,5 4 2 12 6 NNW 0,0
14.06.2019 22:00:00 9,3 6,5 2 1 21 11 NE 0,0
14.06.2019 21:00:00 10,6 7,0 4 2 16 9 NW 0,0
14.06.2019 20:00:00 10,4 8,5 8 5 27 14 ENE -
14.06.2019 19:00:00 10,9 8,3 16 8 24 13 ENE 0,0
14.06.2019 18:00:00 11,8 8,1 13 7 25 13 NNW 0,0
14.06.2019 17:00:00 11,7 8,0 16 8 31 17 NNW 0,0
14.06.2019 16:00:00 13,4 8,7 14 8 30 16 NE 0,0
14.06.2019 15:00:00 15,3 9,4 15 8 29 16 NE 0,0
14.06.2019 14:00:00 14,8 9,2 16 9 26 14 ENE -
14.06.2019 13:00:00 13,7 7,4 9 5 21 11 ENE 0,0
14.06.2019 12:00:00 13,1 7,7 3 1 12 6 NE 0,0
14.06.2019 11:00:00 10,8 7,1 0 0 7 4 W 0,0
14.06.2019 10:00:00 9,7 7,3 4 2 12 6 W 0,0
14.06.2019 09:00:00 8,3 7,3 9 5 12 7 W 0,0
14.06.2019 08:00:00 5,6 4,6 2 1 7 4 SSW -
14.06.2019 07:00:00 4,3 3,4 4 2 8 4 SW 0,0
14.06.2019 06:00:00 5,2 4,3 4 2 7 4 W 0,0

tt = temperature
td = dewpoint
ff = wind speed
fx = gusts
dd = wind direction
rr = precipitation

Next stations